createdAt,value
2019-05-15T00:00:28.833Z,-57
2019-05-15T00:01:30.747Z,-57
2019-05-15T00:02:33.386Z,-57
2019-05-15T00:03:38.802Z,-56
2019-05-15T00:04:40.309Z,-54
2019-05-15T00:05:42.836Z,-55
2019-05-15T00:06:45.283Z,-55
2019-05-15T00:07:48.407Z,-57
2019-05-15T00:08:51.148Z,-56
2019-05-15T00:09:53.807Z,-56
2019-05-15T00:10:58.688Z,-54
2019-05-15T00:12:01.581Z,-57
2019-05-15T00:13:04.521Z,-56
2019-05-15T00:14:08.694Z,-55
2019-05-15T00:15:13.446Z,-55
2019-05-15T00:16:18.007Z,-56
2019-05-15T00:17:20.482Z,-57
2019-05-15T00:18:22.923Z,-56
2019-05-15T00:19:25.378Z,-57
2019-05-15T00:20:29.495Z,-56
2019-05-15T00:21:32.233Z,-57
2019-05-15T00:22:34.835Z,-56
2019-05-15T00:23:38.723Z,-55
2019-05-15T00:24:41.677Z,-55
2019-05-15T00:25:44.232Z,-55
2019-05-15T00:26:48.083Z,-57
2019-05-15T00:27:51.056Z,-55
2019-05-15T00:29:08.522Z,-56
2019-05-15T00:29:59.647Z,-56
2019-05-15T00:31:02.088Z,-55
2019-05-15T00:32:04.746Z,-55
2019-05-15T00:33:08.893Z,-56
2019-05-15T00:34:12.753Z,-56
2019-05-15T00:35:15.678Z,-55
2019-05-15T00:36:19.175Z,-56
2019-05-15T00:37:21.898Z,-56
2019-05-15T00:38:24.618Z,-56
2019-05-15T00:39:28.364Z,-56
2019-05-15T00:40:31.085Z,-56
2019-05-15T00:41:46.647Z,-56
2019-05-15T00:42:38.427Z,-57
2019-05-15T00:43:41.325Z,-57
2019-05-15T00:44:43.759Z,-56
2019-05-15T00:45:48.677Z,-55
2019-05-15T00:46:50.542Z,-55
2019-05-15T00:47:53.034Z,-54
2019-05-15T00:48:55.576Z,-57
2019-05-15T00:49:59.843Z,-55
2019-05-15T00:51:02.283Z,-56
2019-05-15T00:52:04.776Z,-57
2019-05-15T00:53:08.646Z,-54
2019-05-15T00:54:11.343Z,-55
2019-05-15T00:55:14.419Z,-57
2019-05-15T00:56:19.248Z,-56
2019-05-15T00:57:21.210Z,-56
2019-05-15T00:58:23.687Z,-57
2019-05-15T00:59:29.724Z,-55
2019-05-15T01:00:41.780Z,-54
2019-05-15T01:01:44.309Z,-55
2019-05-15T01:02:48.652Z,-54
2019-05-15T01:03:52.222Z,-56
2019-05-15T01:04:54.709Z,-56
2019-05-15T01:05:58.632Z,-54
2019-05-15T01:07:01.387Z,-56
2019-05-15T01:08:04.926Z,-57
2019-05-15T01:09:08.321Z,-57
2019-05-15T01:10:11.378Z,-55
2019-05-15T01:11:14.065Z,-55
2019-05-15T01:12:18.478Z,-57
2019-05-15T01:13:21.257Z,-54
2019-05-15T01:14:24.096Z,-54
2019-05-15T01:15:28.891Z,-55
2019-05-15T01:16:31.042Z,-56
2019-05-15T01:17:33.511Z,-55
2019-05-15T01:18:38.315Z,-56
2019-05-15T01:19:41.964Z,-55
2019-05-15T01:20:49.098Z,-56
2019-05-15T01:21:51.026Z,-56
2019-05-15T01:22:53.579Z,-57
2019-05-15T01:23:56.113Z,-56
2019-05-15T01:24:58.972Z,-54
2019-05-15T01:26:01.762Z,-57
2019-05-15T01:27:04.167Z,-54
2019-05-15T01:28:09.085Z,-55
2019-05-15T01:29:11.037Z,-57
2019-05-15T01:30:14.107Z,-56
2019-05-15T01:31:18.915Z,-55
2019-05-15T01:32:20.914Z,-57
2019-05-15T01:33:23.334Z,-55
2019-05-15T01:34:25.766Z,-56
2019-05-15T01:35:28.754Z,-54
2019-05-15T01:36:31.481Z,-55
2019-05-15T01:37:34.058Z,-54
2019-05-15T01:38:38.624Z,-54
2019-05-15T01:39:40.917Z,-55
2019-05-15T01:40:43.270Z,-55
2019-05-15T01:41:49.342Z,-56
2019-05-15T01:42:50.262Z,-56
2019-05-15T01:43:52.703Z,-56
2019-05-15T01:44:55.149Z,-56
2019-05-15T01:45:58.857Z,-56
2019-05-15T01:47:01.753Z,-56
2019-05-15T01:48:04.227Z,-55
2019-05-15T01:49:08.019Z,-54
2019-05-15T01:50:11.844Z,-55
2019-05-15T01:51:14.477Z,-54
2019-05-15T01:52:18.720Z,-55
2019-05-15T01:53:21.479Z,-55
2019-05-15T01:54:25.147Z,-55
2019-05-15T01:55:28.382Z,-56
2019-05-15T01:56:31.028Z,-55
2019-05-15T01:57:33.462Z,-55
2019-05-15T01:58:38.008Z,-56
2019-05-15T01:59:53.860Z,-55
2019-05-15T02:00:44.659Z,-54
2019-05-15T02:01:48.476Z,-54
2019-05-15T02:02:51.310Z,-56
2019-05-15T02:03:53.866Z,-56
2019-05-15T02:04:58.975Z,-55
2019-05-15T02:06:00.686Z,-56
2019-05-15T02:07:03.172Z,-55
2019-05-15T02:08:08.011Z,-55
2019-05-15T02:09:10.067Z,-54
2019-05-15T02:10:12.762Z,-55
2019-05-15T02:11:15.303Z,-54
2019-05-15T02:12:19.127Z,-55
2019-05-15T02:13:21.832Z,-55
2019-05-15T02:14:24.481Z,-55
2019-05-15T02:15:28.559Z,-55
2019-05-15T02:16:31.293Z,-57
2019-05-15T02:17:33.754Z,-56
2019-05-15T02:18:36.187Z,-55
2019-05-15T02:19:39.176Z,-55
2019-05-15T02:20:42.009Z,-55
2019-05-15T02:21:44.581Z,-54
2019-05-15T02:22:48.521Z,-56
2019-05-15T02:23:51.292Z,-54
2019-05-15T02:24:53.936Z,-56
2019-05-15T02:25:58.732Z,-56
2019-05-15T02:27:00.830Z,-55
2019-05-15T02:28:03.345Z,-55
2019-05-15T02:29:07.834Z,-54
2019-05-15T02:30:22.570Z,-56
2019-05-15T02:31:14.798Z,-55
2019-05-15T02:32:19.343Z,-54
2019-05-15T02:33:21.706Z,-54
2019-05-15T02:34:24.267Z,-54
2019-05-15T02:35:29.639Z,-56
2019-05-15T02:36:31.063Z,-55
2019-05-15T02:37:33.632Z,-56
2019-05-15T02:38:40.432Z,-54
2019-05-15T02:39:40.512Z,-54
2019-05-15T02:40:42.963Z,-55
2019-05-15T02:41:48.784Z,-54
2019-05-15T02:42:49.912Z,-55
2019-05-15T02:43:52.516Z,-55
2019-05-15T02:44:55.133Z,-54
2019-05-15T02:46:00.125Z,-53
2019-05-15T02:47:01.928Z,-55
2019-05-15T02:48:08.583Z,-54
2019-05-15T02:49:09.946Z,-54
2019-05-15T02:50:12.811Z,-55
2019-05-15T02:51:15.359Z,-55
2019-05-15T02:52:19.885Z,-56
2019-05-15T02:53:22.372Z,-55
2019-05-15T02:54:24.820Z,-55
2019-05-15T02:55:29.705Z,-55
2019-05-15T02:56:31.616Z,-55
2019-05-15T02:57:34.247Z,-55
2019-05-15T02:58:39.527Z,-55
2019-05-15T02:59:41.071Z,-54
2019-05-15T03:00:49.600Z,-55
2019-05-15T03:01:49.712Z,-56
2019-05-15T03:02:54.145Z,-56
2019-05-15T03:03:59.445Z,-56
2019-05-15T03:05:01.111Z,-57
2019-05-15T03:06:04.824Z,-56
2019-05-15T03:07:09.672Z,-56
2019-05-15T03:08:13.484Z,-57
2019-05-15T03:09:18.521Z,-55
2019-05-15T03:10:20.299Z,-55
2019-05-15T03:11:22.851Z,-55
2019-05-15T03:12:25.287Z,-54
2019-05-15T03:13:29.861Z,-57
2019-05-15T03:14:32.311Z,-55
2019-05-15T03:15:39.731Z,-55
2019-05-15T03:16:40.906Z,-58
2019-05-15T03:17:43.575Z,-54
2019-05-15T03:18:46.207Z,-55
2019-05-15T03:19:49.728Z,-54
2019-05-15T03:20:52.635Z,-53
2019-05-15T03:21:55.099Z,-55
2019-05-15T03:22:59.766Z,-53
2019-05-15T03:24:03.728Z,-53
2019-05-15T03:25:10.171Z,-53
2019-05-15T03:26:11.111Z,-55
2019-05-15T03:27:13.547Z,-56
2019-05-15T03:28:19.097Z,-55
2019-05-15T03:29:21.194Z,-55
2019-05-15T03:30:24.259Z,-53
2019-05-15T03:31:47.731Z,-54
2019-05-15T03:32:42.163Z,-55
2019-05-15T03:33:37.340Z,-55
2019-05-15T03:34:46.782Z,-55
2019-05-15T03:35:44.952Z,-56
2019-05-15T03:36:52.971Z,-54
2019-05-15T03:37:52.096Z,-55
2019-05-15T03:38:54.654Z,-55
2019-05-15T03:39:59.619Z,-54
2019-05-15T03:41:01.535Z,-54
2019-05-15T03:42:03.974Z,-54
2019-05-15T03:43:09.133Z,-54
2019-05-15T03:44:11.087Z,-54
2019-05-15T03:45:13.558Z,-55
2019-05-15T03:46:19.676Z,-56
2019-05-15T03:47:20.599Z,-54
2019-05-15T03:48:23.115Z,-55
2019-05-15T03:49:25.790Z,-56
2019-05-15T03:50:29.116Z,-56
2019-05-15T03:51:31.795Z,-56
2019-05-15T03:52:34.213Z,-54
2019-05-15T03:53:39.900Z,-56
2019-05-15T03:54:41.091Z,-54
2019-05-15T03:55:43.566Z,-54
2019-05-15T03:56:49.519Z,-56
2019-05-15T03:57:50.342Z,-54
2019-05-15T03:58:52.780Z,-54
2019-05-15T03:59:55.260Z,-55
2019-05-15T04:01:00.270Z,-55
2019-05-15T04:02:02.179Z,-56
2019-05-15T04:03:04.686Z,-55
2019-05-15T04:04:09.600Z,-55
2019-05-15T04:05:12.409Z,-57
2019-05-15T04:06:14.943Z,-57
2019-05-15T04:07:18.864Z,-55
2019-05-15T04:08:24.020Z,-58
2019-05-15T04:09:29.424Z,-56
2019-05-15T04:10:30.884Z,-57
2019-05-15T04:11:33.317Z,-58
2019-05-15T04:12:35.798Z,-57
2019-05-15T04:13:39.743Z,-57
2019-05-15T04:14:42.626Z,-57
2019-05-15T04:15:45.863Z,-57
2019-05-15T04:16:49.704Z,-56
2019-05-15T04:17:52.711Z,-56
2019-05-15T04:18:55.293Z,-57
2019-05-15T04:19:58.873Z,-58
2019-05-15T04:21:01.553Z,-55
2019-05-15T04:22:04.070Z,-56
2019-05-15T04:23:09.798Z,-57
2019-05-15T04:24:11.387Z,-57
2019-05-15T04:25:14.427Z,-56
2019-05-15T04:26:19.473Z,-57
2019-05-15T04:27:23.074Z,-56
2019-05-15T04:28:29.305Z,-56
2019-05-15T04:29:31.059Z,-55
2019-05-15T04:30:33.534Z,-56
2019-05-15T04:31:51.778Z,-55
2019-05-15T04:32:40.615Z,-55
2019-05-15T04:33:43.245Z,-57
2019-05-15T04:34:48.771Z,-57
2019-05-15T04:35:50.005Z,-55
2019-05-15T04:36:52.527Z,-56
2019-05-15T04:37:54.971Z,-55
2019-05-15T04:38:58.712Z,-56
2019-05-15T04:40:01.231Z,-57
2019-05-15T04:41:04.776Z,-56
2019-05-15T04:42:08.227Z,-56
2019-05-15T04:43:11.291Z,-55
2019-05-15T04:44:14.143Z,-55
2019-05-15T04:45:19.197Z,-56
2019-05-15T04:46:20.963Z,-55
2019-05-15T04:47:23.403Z,-56
2019-05-15T04:48:28.749Z,-55
2019-05-15T04:49:30.303Z,-57
2019-05-15T04:50:32.731Z,-55
2019-05-15T04:51:35.190Z,-57
2019-05-15T04:52:39.394Z,-57
2019-05-15T04:53:41.978Z,-56
2019-05-15T04:54:44.734Z,-56
2019-05-15T04:55:49.178Z,-57
2019-05-15T04:56:51.488Z,-54
2019-05-15T04:57:54.033Z,-54
2019-05-15T04:58:59.861Z,-56
2019-05-15T05:00:00.953Z,-54
2019-05-15T05:01:03.394Z,-55
2019-05-15T05:02:26.519Z,-54
2019-05-15T05:03:10.251Z,-54
2019-05-15T05:04:12.792Z,-54
2019-05-15T05:05:15.520Z,-54
2019-05-15T05:06:19.163Z,-54
2019-05-15T05:07:22.405Z,-54
2019-05-15T05:08:24.937Z,-55
2019-05-15T05:09:28.845Z,-56
2019-05-15T05:10:31.694Z,-54
2019-05-15T05:11:34.576Z,-56
2019-05-15T05:12:40.998Z,-54
2019-05-15T05:13:41.371Z,-55
2019-05-15T05:14:43.875Z,-55
2019-05-15T05:15:46.315Z,-55
2019-05-15T05:16:49.098Z,-56
2019-05-15T05:17:51.815Z,-54
2019-05-15T05:18:54.260Z,-54
2019-05-15T05:19:58.339Z,-54
2019-05-15T05:21:02.887Z,-56
2019-05-15T05:22:07.726Z,-55
2019-05-15T05:23:09.730Z,-54
2019-05-15T05:24:12.314Z,-54
2019-05-15T05:25:14.744Z,-55
2019-05-15T05:26:18.508Z,-56
2019-05-15T05:27:21.173Z,-56
2019-05-15T05:28:23.626Z,-56
2019-05-15T05:29:28.035Z,-56
2019-05-15T05:30:30.712Z,-55
2019-05-15T05:31:33.166Z,-56
2019-05-15T05:32:38.781Z,-55
2019-05-15T05:33:41.226Z,-56
2019-05-15T05:34:43.681Z,-55
2019-05-15T05:35:48.470Z,-55
2019-05-15T05:36:50.794Z,-55
2019-05-15T05:37:53.312Z,-56
2019-05-15T05:38:58.308Z,-56
2019-05-15T05:40:00.447Z,-54
2019-05-15T05:41:02.870Z,-56
2019-05-15T05:42:05.331Z,-56
2019-05-15T05:43:09.497Z,-56
2019-05-15T05:44:12.321Z,-55
2019-05-15T05:45:18.158Z,-56
2019-05-15T05:46:20.470Z,-54
2019-05-15T05:47:22.936Z,-55
2019-05-15T05:48:25.349Z,-56
2019-05-15T05:49:28.825Z,-56
2019-05-15T05:50:43.896Z,-54
2019-05-15T05:51:45.137Z,-55
2019-05-15T05:52:49.053Z,-56
2019-05-15T05:53:51.746Z,-56
2019-05-15T05:54:54.210Z,-57
2019-05-15T05:55:58.056Z,-56
2019-05-15T05:57:00.881Z,-57
2019-05-15T05:58:03.680Z,-56
2019-05-15T05:59:06.126Z,-56
2019-05-15T06:00:09.522Z,-55
2019-05-15T06:01:12.233Z,-55
2019-05-15T06:02:14.679Z,-55
2019-05-15T06:03:19.566Z,-54
2019-05-15T06:04:21.622Z,-54
2019-05-15T06:05:24.088Z,-55
2019-05-15T06:06:29.089Z,-56
2019-05-15T06:07:30.955Z,-56
2019-05-15T06:08:33.410Z,-56
2019-05-15T06:09:37.930Z,-55
2019-05-15T06:10:40.236Z,-53
2019-05-15T06:11:42.690Z,-56
2019-05-15T06:12:45.169Z,-56
2019-05-15T06:13:52.256Z,-55
2019-05-15T06:14:52.434Z,-55
2019-05-15T06:15:55.229Z,-54
2019-05-15T06:16:58.907Z,-54
2019-05-15T06:18:01.594Z,-56
2019-05-15T06:19:04.128Z,-55
2019-05-15T06:20:08.586Z,-56
2019-05-15T06:21:11.196Z,-55
2019-05-15T06:22:14.789Z,-54
2019-05-15T06:23:23.167Z,-54
2019-05-15T06:24:21.800Z,-54
2019-05-15T06:25:30.228Z,-55
2019-05-15T06:26:30.669Z,-55
2019-05-15T06:27:39.121Z,-57
2019-05-15T06:28:41.923Z,-57
2019-05-15T06:29:44.404Z,-57
2019-05-15T06:30:48.592Z,-57
2019-05-15T06:31:51.196Z,-58
2019-05-15T06:33:08.252Z,-57
2019-05-15T06:33:59.026Z,-58
2019-05-15T06:35:01.522Z,-57
2019-05-15T06:36:03.965Z,-57
2019-05-15T06:37:08.358Z,-58
2019-05-15T06:38:13.182Z,-57
2019-05-15T06:39:17.801Z,-58
2019-05-15T06:40:20.255Z,-55
2019-05-15T06:41:22.694Z,-55
2019-05-15T06:42:28.353Z,-55
2019-05-15T06:43:31.197Z,-54
2019-05-15T06:44:33.669Z,-56
2019-05-15T06:48:18.695Z,-54
2019-05-15T06:49:39.959Z,-56
2019-05-15T06:50:43.216Z,-55
2019-05-15T06:51:45.671Z,-55
2019-05-15T06:52:49.923Z,-53
2019-05-15T06:53:52.379Z,-56
2019-05-15T06:54:56.518Z,-56
2019-05-15T06:55:59.807Z,-54
2019-05-15T06:57:02.342Z,-54
2019-05-15T06:58:04.794Z,-56
2019-05-15T06:59:08.724Z,-55
2019-05-15T07:00:11.696Z,-55
2019-05-15T07:08:05.521Z,-56
2019-05-15T07:09:09.527Z,-57
2019-05-15T07:10:13.499Z,-56
2019-05-15T07:11:15.948Z,-56
2019-05-15T07:12:18.764Z,-55
2019-05-15T07:13:21.491Z,-57
2019-05-15T07:14:24.390Z,-57
2019-05-15T07:15:27.823Z,-56
2019-05-15T07:16:30.920Z,-56
2019-05-15T07:17:34.515Z,-55
2019-05-15T07:18:39.070Z,-56
2019-05-15T07:19:41.341Z,-56
2019-05-15T07:20:43.924Z,-57
2019-05-15T07:21:48.512Z,-57
2019-05-15T07:22:50.761Z,-57
2019-05-15T07:23:53.315Z,-57
2019-05-15T07:24:58.035Z,-56
2019-05-15T07:26:00.145Z,-57
2019-05-15T07:27:02.618Z,-56
2019-05-15T07:28:05.397Z,-57
2019-05-15T07:29:07.968Z,-56
2019-05-15T07:30:12.100Z,-56
2019-05-15T07:31:14.976Z,-57
2019-05-15T07:32:19.216Z,-57
2019-05-15T07:33:35.827Z,-58
2019-05-15T07:34:28.506Z,-57
2019-05-15T07:35:31.246Z,-57
2019-05-15T07:36:33.729Z,-57
2019-05-15T07:37:38.460Z,-57
2019-05-15T07:38:41.336Z,-57
2019-05-15T07:39:43.884Z,-57
2019-05-15T07:40:51.724Z,-56
2019-05-15T07:41:51.005Z,-55
2019-05-15T07:42:53.436Z,-56
2019-05-15T07:43:58.404Z,-57
2019-05-15T07:45:00.306Z,-57
2019-05-15T07:46:02.743Z,-56
2019-05-15T07:47:05.519Z,-56
2019-05-15T07:48:09.837Z,-57
2019-05-15T07:49:12.422Z,-57
2019-05-15T07:50:15.971Z,-57
2019-05-15T07:51:18.539Z,-57
2019-05-15T07:52:21.068Z,-57
2019-05-15T07:53:23.557Z,-57
2019-05-15T07:54:26.002Z,-57
2019-05-15T07:55:29.635Z,-57
2019-05-15T07:56:32.473Z,-57
2019-05-15T07:57:34.917Z,-58
2019-05-15T07:58:38.607Z,-57
2019-05-15T07:59:41.407Z,-56
2019-05-15T08:00:43.919Z,-57
2019-05-15T08:01:48.758Z,-57
2019-05-15T08:02:50.936Z,-57
2019-05-15T08:04:01.548Z,-56
2019-05-15T08:05:00.583Z,-57
2019-05-15T08:06:04.236Z,-57
2019-05-15T08:07:09.136Z,-57
2019-05-15T08:08:12.145Z,-57
2019-05-15T08:09:17.847Z,-57
2019-05-15T08:10:21.311Z,-56
2019-05-15T08:11:24.906Z,-57
2019-05-15T08:12:28.368Z,-57
2019-05-15T08:13:30.886Z,-57
2019-05-15T08:14:33.561Z,-57
2019-05-15T08:15:37.988Z,-58
2019-05-15T08:16:40.277Z,-57
2019-05-15T08:18:00.136Z,-58
2019-05-15T08:18:48.400Z,-58
2019-05-15T08:19:51.122Z,-58
2019-05-15T08:20:53.581Z,-58
2019-05-15T08:21:58.185Z,-58
2019-05-15T08:23:00.513Z,-58
2019-05-15T08:24:03.276Z,-58
2019-05-15T08:25:13.083Z,-57
2019-05-15T08:26:15.242Z,-58
2019-05-15T08:27:19.583Z,-57
2019-05-15T08:28:22.035Z,-58
2019-05-15T08:29:24.490Z,-58
2019-05-15T08:30:28.844Z,-58
2019-05-15T08:31:31.503Z,-58
2019-05-15T08:32:34.022Z,-58
2019-05-15T08:33:38.710Z,-58
2019-05-15T08:34:40.938Z,-58
2019-05-15T08:35:47.781Z,-58
2019-05-15T08:36:48.453Z,-58
2019-05-15T08:37:51.148Z,-58
2019-05-15T08:38:53.599Z,-58
2019-05-15T08:39:56.073Z,-58
2019-05-15T08:40:59.281Z,-58
2019-05-15T08:42:02.121Z,-58
2019-05-15T08:43:05.623Z,-58
2019-05-15T08:44:08.742Z,-58
2019-05-15T08:45:12.002Z,-58
2019-05-15T08:46:14.467Z,-58
2019-05-15T08:47:19.155Z,-58
2019-05-15T08:48:21.334Z,-58
2019-05-15T08:49:28.243Z,-58
2019-05-15T08:50:30.521Z,-58
2019-05-15T08:51:34.107Z,-58
2019-05-15T08:52:39.077Z,-58
2019-05-15T08:53:41.176Z,-59
2019-05-15T08:54:43.678Z,-59
2019-05-15T08:55:48.126Z,-58
2019-05-15T08:56:50.675Z,-59
2019-05-15T08:58:05.782Z,-59
2019-05-15T08:59:01.053Z,-58
2019-05-15T09:00:03.942Z,-58
2019-05-15T09:01:09.441Z,-59
2019-05-15T09:02:11.003Z,-59
2019-05-15T09:03:13.648Z,-59
2019-05-15T09:04:27.909Z,-59
2019-05-15T09:05:20.863Z,-58
2019-05-15T09:06:23.404Z,-58
2019-05-15T09:07:28.594Z,-58
2019-05-15T09:08:30.631Z,-59
2019-05-15T09:09:33.781Z,-58
2019-05-15T09:10:38.497Z,-59
2019-05-15T09:11:40.718Z,-58
2019-05-15T09:12:43.132Z,-58
2019-05-15T09:13:45.973Z,-58
2019-05-15T09:14:48.746Z,-58
2019-05-15T09:15:51.996Z,-58
2019-05-15T09:16:54.432Z,-58
2019-05-15T09:18:09.168Z,-59
2019-05-15T09:19:01.335Z,-58
2019-05-15T09:20:04.506Z,-59
2019-05-15T09:21:08.798Z,-58
2019-05-15T09:22:11.625Z,-59
2019-05-15T09:23:14.099Z,-57
2019-05-15T09:24:16.547Z,-58
2019-05-15T09:25:19.592Z,-58
2019-05-15T09:26:22.196Z,-58
2019-05-15T09:27:24.669Z,-58
2019-05-15T09:28:29.704Z,-58
2019-05-15T09:29:31.496Z,-58
2019-05-15T09:30:34.091Z,-57
2019-05-15T09:31:38.989Z,-57
2019-05-15T09:32:40.956Z,-58
2019-05-15T09:33:43.415Z,-58
2019-05-15T09:34:51.777Z,-58
2019-05-15T09:35:53.732Z,-58
2019-05-15T09:36:56.187Z,-58
2019-05-15T09:37:58.758Z,-58
2019-05-15T09:39:01.216Z,-58
2019-05-15T09:40:04.212Z,-58
2019-05-15T09:41:09.004Z,-58
2019-05-15T09:42:12.187Z,-58
2019-05-15T09:43:14.628Z,-58
2019-05-15T09:44:21.327Z,-57
2019-05-15T09:45:21.539Z,-58
2019-05-15T09:46:23.988Z,-58
2019-05-15T09:47:26.488Z,-57
2019-05-15T09:48:29.712Z,-58
2019-05-15T09:49:32.166Z,-58
2019-05-15T09:50:34.597Z,-58
2019-05-15T09:51:38.868Z,-58
2019-05-15T09:52:41.300Z,-58
2019-05-15T09:53:48.233Z,-58
2019-05-15T09:54:49.991Z,-58
2019-05-15T09:55:52.643Z,-58
2019-05-15T09:56:55.102Z,-58
2019-05-15T09:57:59.076Z,-57
2019-05-15T09:59:01.689Z,-58
2019-05-15T10:00:04.708Z,-58
2019-05-15T10:01:08.476Z,-57
2019-05-15T10:02:11.359Z,-57
2019-05-15T10:03:13.937Z,-57
2019-05-15T10:04:18.781Z,-58
2019-05-15T10:05:21.073Z,-58
2019-05-15T10:06:23.616Z,-58
2019-05-15T10:07:28.437Z,-57
2019-05-15T10:08:44.672Z,-57
2019-05-15T10:09:48.751Z,-57
2019-05-15T10:10:52.353Z,-56
2019-05-15T10:11:54.819Z,-57
2019-05-15T10:12:59.448Z,-57
2019-05-15T10:14:01.796Z,-57
2019-05-15T10:15:04.806Z,-58
2019-05-15T10:16:08.414Z,-58
2019-05-15T10:17:11.352Z,-57
2019-05-15T10:18:13.911Z,-57
2019-05-15T10:19:18.550Z,-57
2019-05-15T10:20:20.885Z,-57
2019-05-15T10:21:23.308Z,-57
2019-05-15T10:22:28.172Z,-57
2019-05-15T10:23:30.245Z,-57
2019-05-15T10:24:32.712Z,-57
2019-05-15T10:25:35.172Z,-58
2019-05-15T10:26:39.342Z,-57
2019-05-15T10:27:41.985Z,-56
2019-05-15T10:28:44.415Z,-57
2019-05-15T10:29:48.405Z,-57
2019-05-15T10:30:51.099Z,-57
2019-05-15T10:31:53.555Z,-57
2019-05-15T10:32:56.107Z,-57
2019-05-15T10:33:58.595Z,-57
2019-05-15T10:35:02.763Z,-57
2019-05-15T10:36:05.455Z,-57
2019-05-15T10:37:08.432Z,-58
2019-05-15T10:38:11.014Z,-57
2019-05-15T10:39:13.574Z,-58
2019-05-15T10:40:16.224Z,-57
2019-05-15T10:41:19.007Z,-57
2019-05-15T10:42:21.723Z,-57
2019-05-15T10:43:24.415Z,-57
2019-05-15T10:44:28.533Z,-57
2019-05-15T10:45:31.125Z,-57
2019-05-15T10:46:33.739Z,-57
2019-05-15T10:47:38.890Z,-56
2019-05-15T10:48:40.540Z,-57
2019-05-15T10:49:43.085Z,-57
2019-05-15T10:50:45.540Z,-57
2019-05-15T10:51:48.128Z,-57
2019-05-15T10:52:50.605Z,-57
2019-05-15T10:53:53.056Z,-57
2019-05-15T10:54:58.069Z,-57
2019-05-15T10:56:02.639Z,-57
2019-05-15T10:57:05.361Z,-57
2019-05-15T10:58:14.047Z,-57
2019-05-15T10:59:13.115Z,-57
2019-05-15T11:00:19.236Z,-57
2019-05-15T11:01:20.837Z,-57
2019-05-15T11:02:25.111Z,-57
2019-05-15T11:03:29.875Z,-57
2019-05-15T11:04:31.953Z,-57
2019-05-15T11:05:44.471Z,-57
2019-05-15T11:06:38.759Z,-57
2019-05-15T11:07:41.192Z,-57
2019-05-15T11:08:43.609Z,-57
2019-05-15T11:09:48.730Z,-57
2019-05-15T11:10:50.616Z,-57
2019-05-15T11:11:53.024Z,-57
2019-05-15T11:12:55.412Z,-57
2019-05-15T11:14:00.311Z,-57
2019-05-15T11:15:02.157Z,-57
2019-05-15T11:16:04.599Z,-57
2019-05-15T11:17:07.033Z,-57
2019-05-15T11:18:09.490Z,-57
2019-05-15T11:19:11.994Z,-57
2019-05-15T11:20:14.527Z,-57
2019-05-15T11:21:19.007Z,-57
2019-05-15T11:22:21.367Z,-57
2019-05-15T11:23:23.834Z,-57
2019-05-15T11:24:28.267Z,-57
2019-05-15T11:25:30.616Z,-57
2019-05-15T11:26:33.623Z,-57
2019-05-15T11:27:38.838Z,-57
2019-05-15T11:28:40.612Z,-57
2019-05-15T11:29:43.057Z,-57
2019-05-15T11:30:48.579Z,-57
2019-05-15T11:31:49.869Z,-57
2019-05-15T11:32:52.331Z,-57
2019-05-15T11:33:54.884Z,-57
2019-05-15T11:34:58.253Z,-57
2019-05-15T11:36:05.749Z,-56
2019-05-15T11:37:05.407Z,-57
2019-05-15T11:38:10.028Z,-57
2019-05-15T11:39:12.528Z,-57
2019-05-15T11:40:15.216Z,-55
2019-05-15T11:41:19.238Z,-57
2019-05-15T11:42:22.106Z,-57
2019-05-15T11:43:24.565Z,-57
2019-05-15T11:44:28.312Z,-57
2019-05-15T11:45:30.965Z,-57
2019-05-15T11:46:33.627Z,-56
2019-05-15T11:47:39.050Z,-56
2019-05-15T11:48:41.733Z,-56
2019-05-15T11:49:44.206Z,-57
2019-05-15T11:50:46.751Z,-57
2019-05-15T11:51:49.397Z,-57
2019-05-15T11:52:52.071Z,-57
2019-05-15T11:53:54.621Z,-57
2019-05-15T11:54:58.959Z,-57
2019-05-15T11:56:03.203Z,-57
2019-05-15T11:57:08.438Z,-57
2019-05-15T11:58:10.042Z,-55
2019-05-15T11:59:12.626Z,-57
2019-05-15T12:00:26.418Z,-57
2019-05-15T12:01:22.993Z,-57
2019-05-15T12:02:25.559Z,-57
2019-05-15T12:03:29.061Z,-57
2019-05-15T12:04:34.233Z,-57
2019-05-15T12:05:38.570Z,-57
2019-05-15T12:06:40.629Z,-57
2019-05-15T12:07:43.094Z,-55
2019-05-15T12:08:45.556Z,-57
2019-05-15T12:09:48.177Z,-57
2019-05-15T12:10:50.641Z,-57
2019-05-15T12:11:53.122Z,-57
2019-05-15T12:12:55.559Z,-57
2019-05-15T12:13:58.020Z,-56
2019-05-15T12:15:00.510Z,-57
2019-05-15T12:16:02.976Z,-57
2019-05-15T12:17:12.401Z,-57
2019-05-15T12:18:09.824Z,-57
2019-05-15T12:19:17.105Z,-57
2019-05-15T12:20:19.410Z,-55
2019-05-15T12:21:21.185Z,-57
2019-05-15T12:22:23.719Z,-57
2019-05-15T12:23:28.854Z,-57
2019-05-15T12:27:18.238Z,-56
2019-05-15T12:28:18.986Z,-57
2019-05-15T12:29:21.539Z,-57
2019-05-15T12:30:24.537Z,-57
2019-05-15T12:31:27.257Z,-57
2019-05-15T12:32:36.403Z,-57
2019-05-15T12:33:34.168Z,-57
2019-05-15T12:34:38.859Z,-57
2019-05-15T12:35:41.155Z,-57
2019-05-15T12:37:48.113Z,-59
2019-05-15T12:38:50.658Z,-57
2019-05-15T13:00:00.908Z,-57
2019-05-15T13:01:14.797Z,-57
2019-05-15T13:02:08.238Z,-57
2019-05-15T13:03:10.862Z,-57
2019-05-15T13:04:13.367Z,-57
2019-05-15T13:05:15.947Z,-57
2019-05-15T13:06:19.222Z,-57
2019-05-15T13:07:21.968Z,-57
2019-05-15T13:08:24.640Z,-56
2019-05-15T13:09:27.793Z,-57
2019-05-15T13:10:30.419Z,-57
2019-05-15T13:11:32.918Z,-57
2019-05-15T13:12:38.337Z,-57
2019-05-15T13:13:39.838Z,-57
2019-05-15T13:14:42.375Z,-57
2019-05-15T13:15:44.871Z,-57
2019-05-15T13:16:48.061Z,-57
2019-05-15T13:17:52.605Z,-57
2019-05-15T13:18:55.260Z,-57
2019-05-15T13:19:58.665Z,-57
2019-05-15T13:21:01.604Z,-57
2019-05-15T13:22:17.148Z,-57
2019-05-15T13:23:08.553Z,-57
2019-05-15T13:24:11.194Z,-58
2019-05-15T13:25:13.748Z,-57
2019-05-15T13:26:23.783Z,-57
2019-05-15T13:27:20.584Z,-57
2019-05-15T13:28:23.020Z,-57
2019-05-15T13:29:25.483Z,-57
2019-05-15T13:30:30.105Z,-57
2019-05-15T13:31:34.660Z,-57
2019-05-15T13:32:40.721Z,-57
2019-05-15T13:33:41.603Z,-57
2019-05-15T13:34:44.278Z,-57
2019-05-15T13:35:48.629Z,-57
2019-05-15T13:36:51.338Z,-57
2019-05-15T13:37:53.865Z,-57
2019-05-15T13:38:57.866Z,-58
2019-05-15T13:40:00.542Z,-57
2019-05-15T13:41:02.997Z,-57
2019-05-15T13:42:05.681Z,-56
2019-05-15T13:43:08.576Z,-57
2019-05-15T13:44:11.403Z,-57
2019-05-15T13:45:14.556Z,-57
2019-05-15T13:46:20.594Z,-58
2019-05-15T13:47:21.547Z,-57
2019-05-15T13:48:24.046Z,-58
2019-05-15T13:49:28.175Z,-57
2019-05-15T13:50:30.899Z,-57
2019-05-15T13:51:33.349Z,-58
2019-05-15T13:52:35.967Z,-57
2019-05-15T13:53:39.741Z,-58
2019-05-15T13:54:42.220Z,-58
2019-05-15T13:55:44.783Z,-58
2019-05-15T13:56:48.809Z,-57
2019-05-15T13:58:18.300Z,-57
2019-05-15T13:59:38.872Z,-56
2019-05-15T14:01:09.380Z,-57
2019-05-15T14:02:32.182Z,-55
2019-05-15T14:03:35.551Z,-57
2019-05-15T14:04:38.740Z,-57
2019-05-15T14:05:44.927Z,-57
2019-05-15T14:06:45.760Z,-57
2019-05-15T14:07:50.700Z,-57
2019-05-15T14:08:52.700Z,-57
2019-05-15T14:09:55.158Z,-57
2019-05-15T14:10:58.209Z,-57
2019-05-15T14:12:01.039Z,-57
2019-05-15T14:13:04.627Z,-57
2019-05-15T14:14:07.087Z,-58
2019-05-15T14:15:09.535Z,-57
2019-05-15T14:16:12.073Z,-57
2019-05-15T14:17:14.711Z,-56
2019-05-15T14:18:19.472Z,-57
2019-05-15T14:19:21.743Z,-57
2019-05-15T14:20:24.168Z,-56
2019-05-15T14:21:28.542Z,-57
2019-05-15T14:22:31.240Z,-57
2019-05-15T14:23:33.767Z,-55
2019-05-15T14:24:38.082Z,-57
2019-05-15T14:25:40.595Z,-57
2019-05-15T14:26:43.149Z,-57
2019-05-15T14:27:48.398Z,-57
2019-05-15T14:28:50.004Z,-58
2019-05-15T14:29:52.439Z,-57
2019-05-15T14:30:54.895Z,-57
2019-05-15T14:31:58.483Z,-58
2019-05-15T14:33:01.341Z,-57
2019-05-15T14:34:03.955Z,-57
2019-05-15T14:35:09.032Z,-57
2019-05-15T14:36:11.518Z,-59
2019-05-15T14:37:13.984Z,-57
2019-05-15T14:38:18.550Z,-57
2019-05-15T14:39:21.099Z,-57
2019-05-15T14:40:23.700Z,-57
2019-05-15T14:41:29.099Z,-57
2019-05-15T14:42:30.737Z,-57
2019-05-15T14:43:33.213Z,-57
2019-05-15T14:44:38.175Z,-58
2019-05-15T14:45:40.339Z,-58
2019-05-15T14:46:42.776Z,-58
2019-05-15T14:47:45.250Z,-57
2019-05-15T14:48:49.082Z,-60
2019-05-15T14:49:52.175Z,-58
2019-05-15T14:50:54.655Z,-58
2019-05-15T14:52:07.634Z,-58
2019-05-15T14:53:02.899Z,-58
2019-05-15T14:54:05.564Z,-58
2019-05-15T14:55:08.414Z,-58
2019-05-15T14:56:10.872Z,-58
2019-05-15T14:57:13.498Z,-58
2019-05-15T14:58:19.652Z,-56
2019-05-15T14:59:21.070Z,-58
2019-05-15T15:00:28.525Z,-58
2019-05-15T15:01:28.049Z,-58
2019-05-15T15:02:30.507Z,-58
2019-05-15T15:03:33.041Z,-58
2019-05-15T15:04:35.623Z,-58
2019-05-15T15:05:38.771Z,-58
2019-05-15T15:06:41.551Z,-57